ENKR/KKN METAR and TAF weather

Enter ICAO airport designator
Station Type Date Time Source
ENKR METAR 2021/09/28 04:50 UTC NOAA

ENKR 280450Z 20012KT CAVOK 07/06 Q1025 RMK WIND 731FT 21017KT


Station Type Date Time Source
ENKR Decoded METAR 2021/09/28 04:50 UTC NOAA

Kirkenes Lufthavn, Norway (ENKR) 69-44N 029-54E 91M
Sep 28, 2021 - 12:50 AM EDT / 2021.09.28 0450 UTC
Wind: from the SSW (200 degrees) at 14 MPH (12 KT):0
Visibility: greater than 7 mile(s):0
Temperature: 44 F (7 C)
Dew Point: 42 F (6 C)
Relative Humidity: 93%
Pressure (altimeter): 30.27 in. Hg (1025 hPa)
ob: ENKR 280450Z 20012KT CAVOK 07/06 Q1025 RMK WIND 731FT 21017KT
cycle: 5

Station Type Date Time Source
ENKR TAF 2017/08/31 21:36 UTC NOAA

TAF TAF ENKR 312300Z 3121/0109 29005KT 9999 FEW020 SCT040

Example: see airport list